Time;durP1;ratioP1;P1;durP2;ratioP2;P2;SDS_P1;SDS_P2;PMS_P1;PMS_P2;Temp;Humidity;BMP_temperature;BMP_pressure;BME280_temperature;BME280_humidity;BME280_pressure;Samples;Min_cycle;Max_cycle;Signal;HPM_P1;HPM_P2
2023/10/13 00:00:40;;;;;;;0.57;0.57;;;1.70;99.90;;;;;;5029923;28;20259;-76
2023/10/13 00:03:06;;;;;;;0.70;0.70;;;1.60;99.90;;;;;;5029981;28;20197;-76
2023/10/13 00:05:35;;;;;;;0.70;0.70;;;1.60;99.90;;;;;;5029489;28;20277;-76
2023/10/13 00:08:02;;;;;;;0.73;0.73;;;1.60;99.90;;;;;;5028140;28;20289;-76
2023/10/13 00:10:51;;;;;;;0.60;0.60;;;1.60;99.90;;;;;;5029517;28;20209;-75
2023/10/13 00:13:21;;;;;;;0.70;0.70;;;1.70;99.90;;;;;;4999277;28;20297;-76
2023/10/13 00:15:59;;;;;;;0.60;0.60;;;1.70;99.90;;;;;;5029358;28;20684;-75
2023/10/13 00:18:34;;;;;;;0.70;0.70;;;1.70;99.90;;;;;;5011635;28;20249;-75
2023/10/13 00:21:12;;;;;;;0.70;0.70;;;1.70;99.90;;;;;;5014133;28;20198;-77
2023/10/13 00:23:39;;;;;;;0.85;0.85;;;1.60;99.90;;;;;;5033519;28;20659;-75
2023/10/13 00:26:09;;;;;;;0.60;0.60;;;1.60;99.90;;;;;;5033832;28;20281;-75
2023/10/13 00:28:46;;;;;;;0.60;0.60;;;1.60;99.90;;;;;;5015588;28;20244;-76
2023/10/13 00:31:13;;;;;;;0.70;0.70;;;1.60;99.90;;;;;;5015680;28;20670;-75
2023/10/13 00:33:49;;;;;;;0.60;0.60;;;1.60;99.90;;;;;;5033137;28;20708;-76
2023/10/13 00:36:19;;;;;;;0.60;0.60;;;1.60;99.90;;;;;;5015842;28;20676;-76
2023/10/13 00:38:48;;;;;;;0.57;0.57;;;1.50;99.90;;;;;;5014912;28;20691;-82
2023/10/13 00:41:16;;;;;;;0.60;0.60;;;1.50;99.90;;;;;;5032875;28;20279;-78
2023/10/13 00:44:03;;;;;;;0.55;0.55;;;1.50;99.90;;;;;;5032171;28;20202;-78
2023/10/13 00:46:33;;;;;;;0.60;0.60;;;1.50;99.90;;;;;;5013861;28;20251;-80
2023/10/13 00:49:08;;;;;;;0.68;0.68;;;1.50;99.90;;;;;;5014848;28;20276;-80
2023/10/13 00:54:27;;;;;;;0.63;0.63;;;1.50;99.90;;;;;;5017729;28;20591;-79
2023/10/13 00:57:04;;;;;;;0.70;0.70;;;1.50;99.90;;;;;;5014606;28;20202;-79
2023/10/13 00:59:41;;;;;;;0.60;0.60;;;1.40;99.90;;;;;;5014610;28;20719;-80
2023/10/13 01:02:55;;;;;;;0.80;0.80;;;1.40;99.90;;;;;;5032261;28;20194;-82
2023/10/13 01:04:56;;;;;;;0.50;0.50;;;1.40;99.90;;;;;;5020641;28;20206;-78
2023/10/13 01:07:23;;;;;;;0.68;0.68;;;1.40;99.90;;;;;;5014219;28;20686;-79
2023/10/13 01:09:48;;;;;;;0.60;0.60;;;1.30;99.90;;;;;;5013806;28;20202;-80
2023/10/13 01:12:14;;;;;;;0.70;0.70;;;1.30;99.90;;;;;;5032165;28;20198;-78
2023/10/13 01:14:40;;;;;;;0.60;0.60;;;1.30;99.90;;;;;;5031604;28;20280;-79
2023/10/13 01:17:06;;;;;;;0.73;0.73;;;1.30;99.90;;;;;;5013952;28;20681;-80
2023/10/13 01:19:38;;;;;;;0.70;0.70;;;1.30;99.90;;;;;;5031154;28;20238;-79
2023/10/13 01:22:06;;;;;;;0.60;0.60;;;1.20;99.90;;;;;;5031569;28;20202;-79
2023/10/13 01:24:34;;;;;;;0.80;0.80;;;1.20;99.90;;;;;;5031642;28;20186;-81
2023/10/13 01:27:16;;;;;;;0.70;0.70;;;1.20;99.90;;;;;;5031430;28;20558;-80
2023/10/13 01:29:50;;;;;;;0.70;0.70;;;1.20;99.90;;;;;;5031806;28;20190;-80
2023/10/13 01:32:19;;;;;;;0.65;0.65;;;1.20;99.90;;;;;;5030409;28;20194;-79
2023/10/13 01:34:47;;;;;;;0.50;0.50;;;1.20;99.90;;;;;;5031904;28;20684;-79
2023/10/13 01:37:12;;;;;;;0.60;0.60;;;1.20;99.90;;;;;;5031682;28;20201;-81
2023/10/13 01:39:38;;;;;;;0.70;0.70;;;1.20;99.90;;;;;;5013642;28;20202;-77
2023/10/13 01:42:06;;;;;;;0.65;0.65;;;1.10;99.90;;;;;;5031733;28;20202;-76
2023/10/13 01:44:32;;;;;;;0.70;0.70;;;1.10;99.90;;;;;;5031757;28;20182;-76
2023/10/13 01:47:06;;;;;;;0.60;0.60;;;1.10;99.90;;;;;;5031358;28;20195;-76
2023/10/13 01:49:49;;;;;;;0.60;0.60;;;1.10;99.90;;;;;;5014264;28;20205;-76
2023/10/13 01:52:15;;;;;;;0.70;0.70;;;1.10;99.90;;;;;;5014994;28;20217;-77
2023/10/13 01:54:48;;;;;;;0.70;0.70;;;1.10;99.90;;;;;;5010534;28;20285;-76
2023/10/13 01:57:17;;;;;;;0.60;0.60;;;1.10;99.90;;;;;;5012523;28;20191;-75
2023/10/13 01:59:44;;;;;;;0.60;0.60;;;1.00;99.90;;;;;;5012420;28;20282;-75
2023/10/13 02:02:14;;;;;;;0.70;0.70;;;1.00;99.90;;;;;;5008027;28;20283;-76
2023/10/13 02:04:48;;;;;;;0.70;0.70;;;1.10;99.90;;;;;;4992742;28;20195;-76
2023/10/13 02:07:17;;;;;;;0.70;0.70;;;1.10;99.90;;;;;;4993021;28;20261;-76
2023/10/13 02:09:43;;;;;;;0.60;0.60;;;1.00;99.90;;;;;;5006909;28;20265;-76
2023/10/13 02:12:10;;;;;;;0.65;0.65;;;0.90;99.90;;;;;;5012454;28;20190;-76
2023/10/13 02:14:39;;;;;;;0.60;0.60;;;0.90;99.90;;;;;;5010974;28;20231;-75
2023/10/13 02:17:16;;;;;;;0.60;0.60;;;0.80;99.90;;;;;;5008020;28;20199;-75
2023/10/13 02:19:45;;;;;;;0.60;0.60;;;0.80;99.90;;;;;;4990897;28;20203;-77
2023/10/13 02:22:11;;;;;;;1.17;1.08;;;0.90;99.90;;;;;;4992622;28;20198;-77
2023/10/13 02:24:40;;;;;;;0.57;0.57;;;0.80;99.90;;;;;;5003757;28;20194;-77
2023/10/13 02:27:14;;;;;;;0.60;0.60;;;0.90;99.90;;;;;;5010695;28;20227;-76
2023/10/13 02:29:40;;;;;;;0.60;0.60;;;0.90;99.90;;;;;;5011847;28;20194;-76
2023/10/13 02:32:18;;;;;;;0.60;0.60;;;0.90;99.90;;;;;;5010672;28;20249;-76
2023/10/13 02:35:07;;;;;;;0.60;0.60;;;0.90;99.90;;;;;;5011494;28;20694;-77
2023/10/13 02:37:35;;;;;;;0.60;0.60;;;0.90;99.90;;;;;;5011693;28;20534;-77
2023/10/13 02:40:01;;;;;;;0.80;0.80;;;0.80;99.90;;;;;;5026657;28;20209;-76
2023/10/13 02:42:26;;;;;;;0.68;0.68;;;0.80;99.90;;;;;;5011031;28;20290;-76
2023/10/13 02:44:57;;;;;;;0.60;0.60;;;0.70;99.90;;;;;;5011217;28;20191;-76
2023/10/13 02:47:26;;;;;;;0.70;0.70;;;0.70;99.90;;;;;;5026361;28;20206;-77
2023/10/13 02:49:52;;;;;;;0.65;0.65;;;0.70;99.90;;;;;;5010985;28;20187;-77
2023/10/13 02:52:18;;;;;;;0.75;0.75;;;0.70;99.90;;;;;;5010365;28;20594;-77
2023/10/13 02:54:52;;;;;;;0.88;0.88;;;0.80;99.90;;;;;;5008221;28;20215;-77
2023/10/13 02:57:18;;;;;;;0.70;0.70;;;0.80;99.90;;;;;;5010284;28;20212;-77
2023/10/13 02:59:47;;;;;;;0.77;0.77;;;0.80;99.90;;;;;;5008824;28;20643;-80
2023/10/13 03:02:17;;;;;;;0.63;0.63;;;0.80;99.90;;;;;;5001488;28;20198;-81
2023/10/13 03:04:59;;;;;;;7.95;2.20;;;0.80;99.90;;;;;;5005291;28;20203;-81
2023/10/13 03:07:28;;;;;;;0.50;0.50;;;0.80;99.90;;;;;;4990467;28;20229;-81
2023/10/13 03:10:00;;;;;;;0.60;0.60;;;0.70;99.90;;;;;;4989221;28;20680;-80
2023/10/13 03:12:32;;;;;;;0.68;0.68;;;0.70;99.90;;;;;;4990421;28;20739;-81
2023/10/13 03:15:11;;;;;;;0.60;0.60;;;0.70;99.90;;;;;;4989182;28;20207;-81
2023/10/13 03:17:40;;;;;;;0.70;0.70;;;0.80;99.90;;;;;;4988936;28;20235;-81
2023/10/13 03:20:07;;;;;;;0.65;0.65;;;0.80;99.90;;;;;;4997058;28;20682;-80
2023/10/13 03:22:33;;;;;;;0.70;0.70;;;0.80;99.90;;;;;;5009909;28;20286;-79
2023/10/13 03:25:05;;;;;;;0.60;0.60;;;0.70;99.90;;;;;;5010226;28;20617;-79
2023/10/13 03:28:00;;;;;;;0.70;0.70;;;0.70;99.90;;;;;;5008201;28;20203;-79
2023/10/13 03:30:35;;;;;;;0.55;0.55;;;0.70;99.90;;;;;;5009476;28;20582;-80
2023/10/13 03:33:25;;;;;;;0.60;0.60;;;0.70;99.90;;;;;;5008275;28;20254;-80
2023/10/13 03:35:54;;;;;;;0.63;0.63;;;0.60;99.90;;;;;;5009993;28;20558;-81
2023/10/13 03:38:20;;;;;;;0.60;0.60;;;0.60;99.90;;;;;;5009758;28;20748;-79
2023/10/13 03:40:56;;;;;;;0.60;0.60;;;0.50;99.90;;;;;;5009570;28;20198;-81
2023/10/13 03:43:22;;;;;;;0.70;0.70;;;0.40;99.90;;;;;;5007952;28;20213;-80
2023/10/13 03:46:08;;;;;;;0.50;0.50;;;0.40;99.90;;;;;;5008102;28;20195;-81
2023/10/13 03:48:51;;;;;;;0.70;0.70;;;0.40;99.90;;;;;;5009364;28;20209;-80
2023/10/13 03:51:17;;;;;;;0.77;0.77;;;0.30;99.90;;;;;;5009376;28;20191;-80
2023/10/13 03:53:56;;;;;;;0.60;0.60;;;0.30;99.90;;;;;;5017028;28;20355;-81
2023/10/13 03:56:27;;;;;;;0.70;0.70;;;0.30;99.90;;;;;;5010588;28;20562;-79
2023/10/13 03:58:57;;;;;;;0.73;0.73;;;0.20;99.90;;;;;;5029296;28;20210;-78
2023/10/13 04:01:34;;;;;;;0.70;0.70;;;0.20;99.90;;;;;;5029889;28;20544;-79
2023/10/13 04:04:04;;;;;;;0.70;0.70;;;0.20;99.90;;;;;;5011760;28;20258;-79
2023/10/13 04:17:40;;;;;;;0.68;0.68;;;0.20;99.90;;;;;;5028986;28;20194;-77
2023/10/13 04:31:11;;;;;;;0.70;0.70;;;0.00;99.90;;;;;;5028589;28;20190;-77
2023/10/13 04:39:09;;;;;;;0.73;0.73;;;0.00;99.90;;;;;;5028779;28;20279;-77
2023/10/13 04:41:57;;;;;;;0.70;0.70;;;0.00;99.90;;;;;;5028440;28;20191;-76
2023/10/13 04:51:58;;;;;;;0.70;0.70;;;0.00;99.90;;;;;;5028367;28;20692;-76
2023/10/13 04:54:45;;;;;;;0.65;0.65;;;0.00;99.90;;;;;;5027944;28;20665;-76
2023/10/13 06:28:40;;;;;;;0.70;0.70;;;1.30;99.90;;;;;;5031532;28;20194;-81
2023/10/13 06:30:12;;;;;;;0.70;0.70;;;2.10;99.90;;;;;;5030907;28;20225;-80
2023/10/13 06:32:41;;;;;;;0.70;0.70;;;2.20;99.90;;;;;;5030418;28;20300;-80
2023/10/13 06:35:08;;;;;;;0.60;0.60;;;2.30;99.90;;;;;;5012632;28;20252;-80
2023/10/13 06:37:34;;;;;;;0.60;0.60;;;2.40;99.90;;;;;;5029141;28;20289;-81
2023/10/13 06:43:11;;;;;;;0.60;0.60;;;2.50;99.90;;;;;;5031053;28;20208;-81
2023/10/13 06:45:37;;;;;;;0.50;0.50;;;2.60;99.90;;;;;;5030570;28;20222;-82
2023/10/13 06:48:04;;;;;;;0.63;0.63;;;2.70;99.90;;;;;;5030611;28;20280;-81
2023/10/13 06:50:39;;;;;;;0.65;0.65;;;2.70;99.90;;;;;;5029187;28;20198;-80
2023/10/13 06:53:07;;;;;;;0.90;0.90;;;2.80;99.90;;;;;;5029223;28;20236;-80
2023/10/13 06:55:39;;;;;;;1.10;1.10;;;2.90;99.90;;;;;;5009549;28;20671;-80
2023/10/13 06:58:06;;;;;;;0.63;0.63;;;3.00;99.90;;;;;;5010956;28;20294;-81
2023/10/13 07:00:37;;;;;;;0.60;0.60;;;3.10;99.90;;;;;;5011451;28;20191;-80
2023/10/13 07:03:08;;;;;;;0.52;0.52;;;3.20;99.90;;;;;;5030408;28;20553;-81
2023/10/13 07:05:39;;;;;;;0.55;0.55;;;3.30;99.90;;;;;;5030176;28;20193;-83
2023/10/13 07:08:08;;;;;;;0.70;0.70;;;3.40;99.90;;;;;;5030247;28;20272;-82
2023/10/13 07:10:51;;;;;;;0.60;0.60;;;3.50;99.90;;;;;;5012207;28;20194;-81
2023/10/13 07:13:19;;;;;;;0.70;0.70;;;3.60;99.90;;;;;;5030287;28;20263;-81
2023/10/13 07:15:48;;;;;;;0.70;0.70;;;3.70;99.90;;;;;;5029804;28;20197;-81
2023/10/13 07:18:22;;;;;;;0.55;0.55;;;3.80;99.90;;;;;;5028650;28;20670;-80
2023/10/13 07:20:48;;;;;;;1.35;1.25;;;3.90;99.90;;;;;;5011494;28;20201;-81
2023/10/13 07:23:17;;;;;;;0.70;0.70;;;4.00;99.90;;;;;;5029894;28;20252;-81
2023/10/13 07:26:02;;;;;;;0.70;0.70;;;4.10;99.90;;;;;;5030022;28;20190;-81
2023/10/13 07:28:35;;;;;;;0.60;0.60;;;4.20;99.90;;;;;;5029833;28;20657;-78
2023/10/13 07:33:31;;;;;;;0.70;0.70;;;4.40;99.90;;;;;;5029980;28;20194;-76
2023/10/13 07:39:20;;;;;;;0.70;0.70;;;4.60;99.90;;;;;;5009133;28;20217;-81
2023/10/13 07:41:51;;;;;;;0.70;0.70;;;4.70;99.90;;;;;;5011733;28;20202;-79
2023/10/13 07:44:33;;;;;;;0.68;0.68;;;4.90;99.90;;;;;;5011416;28;20191;-79
2023/10/13 07:47:07;;;;;;;0.70;0.70;;;5.00;99.90;;;;;;4993665;28;20239;-78
2023/10/13 07:49:40;;;;;;;0.52;0.52;;;5.10;99.90;;;;;;5010164;28;20292;-79
2023/10/13 07:54:49;;;;;;;0.70;0.70;;;5.40;99.90;;;;;;5011530;28;20762;-78
2023/10/13 07:57:18;;;;;;;1.65;1.25;;;5.50;99.90;;;;;;5011508;28;20195;-79
2023/10/13 07:59:53;;;;;;;0.60;0.60;;;5.60;99.90;;;;;;5011188;28;20249;-78
2023/10/13 08:05:08;;;;;;;0.80;0.80;;;5.80;99.90;;;;;;5030825;28;20241;-79
2023/10/13 08:07:39;;;;;;;0.73;0.73;;;5.90;99.90;;;;;;5031005;28;20549;-78
2023/10/13 08:10:09;;;;;;;0.70;0.70;;;6.10;99.90;;;;;;5030883;28;20650;-78
2023/10/13 08:12:37;;;;;;;1.35;1.10;;;6.20;99.90;;;;;;5030650;28;20240;-79
2023/10/13 08:15:21;;;;;;;0.70;0.70;;;6.30;99.90;;;;;;5030875;28;20192;-79
2023/10/13 08:17:53;;;;;;;0.80;0.80;;;6.50;99.90;;;;;;5030880;28;20225;-78
2023/10/13 08:20:22;;;;;;;0.60;0.60;;;6.60;99.90;;;;;;5012419;28;20218;-78
2023/10/13 08:22:48;;;;;;;0.63;0.63;;;6.80;99.90;;;;;;5013357;28;20221;-79
2023/10/13 08:26:29;;;;;;;0.80;0.80;;;7.00;99.90;;;;;;5030643;28;20244;-78
2023/10/13 08:31:22;;;;;;;1.20;1.13;;;7.30;99.90;;;;;;4999913;28;20652;-79
2023/10/13 08:33:51;;;;;;;0.60;0.60;;;7.40;99.90;;;;;;5030917;28;20272;-78
2023/10/13 08:36:42;;;;;;;1.25;1.15;;;7.60;99.90;;;;;;5030580;28;20190;-78
2023/10/13 08:42:11;;;;;;;0.60;0.60;;;7.80;99.90;;;;;;4970446;28;20215;-81
2023/10/13 08:44:45;;;;;;;0.60;0.60;;;7.70;99.90;;;;;;5020846;28;20670;-80
2023/10/13 08:47:18;;;;;;;0.80;0.80;;;7.70;99.90;;;;;;5015110;28;20680;-81
2023/10/13 08:49:50;;;;;;;0.60;0.60;;;7.60;99.90;;;;;;5033349;28;20658;-81
2023/10/13 08:57:53;;;;;;;0.65;0.65;;;7.50;99.90;;;;;;5006698;28;20209;-81
2023/10/13 09:06:06;;;;;;;0.60;0.60;;;7.60;99.90;;;;;;5012833;28;20257;-81
2023/10/13 09:08:35;;;;;;;0.60;0.60;;;7.60;99.90;;;;;;4995015;28;20674;-80
2023/10/13 09:11:13;;;;;;;0.63;0.63;;;7.70;99.90;;;;;;5024549;28;20216;-80
2023/10/13 09:13:45;;;;;;;0.57;0.57;;;7.70;99.90;;;;;;5030583;28;21271;-80
2023/10/13 09:16:17;;;;;;;0.98;0.98;;;7.80;99.90;;;;;;5014582;28;20264;-81
2023/10/13 09:18:46;;;;;;;2.70;1.95;;;7.90;99.90;;;;;;5032698;28;20209;-80
2023/10/13 09:24:21;;;;;;;1.33;1.23;;;8.00;99.90;;;;;;4951728;29;20247;-80
2023/10/13 09:26:55;;;;;;;0.88;0.88;;;8.00;99.90;;;;;;4951595;29;20224;-79
2023/10/13 09:29:21;;;;;;;0.70;0.70;;;8.10;99.90;;;;;;4935294;29;20213;-82
2023/10/13 09:31:48;;;;;;;0.70;0.70;;;8.10;99.90;;;;;;4951674;29;20213;-81
2023/10/13 09:34:29;;;;;;;0.60;0.60;;;8.20;99.90;;;;;;4951761;29;20204;-80
2023/10/13 09:37:03;;;;;;;0.60;0.60;;;8.40;99.90;;;;;;4951129;29;20669;-80
2023/10/13 09:39:30;;;;;;;0.70;0.70;;;8.50;99.90;;;;;;4951628;29;20216;-81
2023/10/13 09:41:59;;;;;;;0.65;0.65;;;8.70;99.90;;;;;;4951265;29;20303;-81
2023/10/13 09:44:30;;;;;;;0.60;0.60;;;9.00;99.90;;;;;;4951085;29;20204;-81
2023/10/13 09:47:07;;;;;;;0.80;0.80;;;9.30;99.90;;;;;;4935870;29;20251;-79
2023/10/13 09:49:45;;;;;;;0.60;0.60;;;9.60;99.90;;;;;;4935074;29;20204;-81
2023/10/13 09:52:19;;;;;;;0.50;0.50;;;9.80;99.90;;;;;;4950579;28;20707;-80
2023/10/13 09:55:17;;;;;;;0.68;0.68;;;10.00;99.90;;;;;;4960573;28;20222;-80
2023/10/13 09:57:48;;;;;;;0.70;0.70;;;10.10;99.90;;;;;;5011406;28;20195;-80
2023/10/13 10:03:15;;;;;;;0.65;0.65;;;10.30;99.90;;;;;;4992154;28;20202;-80
2023/10/13 10:06:03;;;;;;;0.82;0.82;;;10.50;99.90;;;;;;5007077;28;20231;-79
2023/10/13 10:08:38;;;;;;;0.60;0.60;;;10.70;99.90;;;;;;4991773;28;20203;-79
2023/10/13 10:11:04;;;;;;;0.60;0.60;;;10.90;99.90;;;;;;5006831;28;20227;-79
2023/10/13 10:13:53;;;;;;;0.60;0.60;;;11.00;99.90;;;;;;5007004;28;20203;-80
2023/10/13 10:16:27;;;;;;;4.85;2.35;;;11.10;99.90;;;;;;5006541;28;20238;-79
2023/10/13 10:19:02;;;;;;;0.60;0.60;;;11.40;99.90;;;;;;5006664;28;20212;-80
2023/10/13 10:21:35;;;;;;;0.98;0.95;;;11.50;99.90;;;;;;4991625;28;20302;-79
2023/10/13 10:24:13;;;;;;;0.60;0.60;;;11.40;99.90;;;;;;5007509;28;20199;-79
2023/10/13 10:26:51;;;;;;;0.80;0.80;;;11.50;99.90;;;;;;4994761;28;20677;-80
2023/10/13 10:29:17;;;;;;;0.60;0.60;;;11.50;99.90;;;;;;4992049;28;20192;-79
2023/10/13 10:31:46;;;;;;;0.60;0.60;;;11.50;99.90;;;;;;4991508;28;20715;-80
2023/10/13 10:34:18;;;;;;;0.60;0.60;;;11.50;99.90;;;;;;4990232;28;20203;-80
2023/10/13 10:36:47;;;;;;;0.60;0.60;;;11.60;99.90;;;;;;5006227;28;20226;-80
2023/10/13 10:39:17;;;;;;;0.60;0.60;;;11.60;99.90;;;;;;4991238;28;20211;-81
2023/10/13 10:44:16;;;;;;;0.57;0.57;;;11.60;99.90;;;;;;4991440;28;20199;-80
2023/10/13 10:46:51;;;;;;;0.60;0.60;;;11.70;99.90;;;;;;5005914;28;20195;-82
2023/10/13 10:49:27;;;;;;;18.40;1.58;;;11.60;99.90;;;;;;5006413;28;20635;-81
2023/10/13 10:52:07;;;;;;;0.60;0.60;;;11.50;99.90;;;;;;5010695;28;20194;-81
2023/10/13 10:54:33;;;;;;;0.60;0.60;;;11.60;99.90;;;;;;5010167;28;20701;-80
2023/10/13 10:57:10;;;;;;;0.63;0.63;;;11.60;99.90;;;;;;5023177;28;20246;-81
2023/10/13 10:59:37;;;;;;;0.60;0.60;;;11.60;99.90;;;;;;4989698;28;20219;-78
2023/10/13 11:02:03;;;;;;;0.60;0.60;;;11.60;99.90;;;;;;4989882;28;20627;-77
2023/10/13 11:04:50;;;;;;;0.60;0.60;;;11.60;99.90;;;;;;4990846;28;20719;-78
2023/10/13 11:07:27;;;;;;;0.68;0.68;;;11.60;99.90;;;;;;4990916;28;20708;-78
2023/10/13 11:10:08;;;;;;;12.88;1.65;;;11.70;99.90;;;;;;4991116;28;20203;-76
2023/10/13 11:12:40;;;;;;;0.50;0.50;;;11.80;99.90;;;;;;4991690;28;20545;-76
2023/10/13 11:15:33;;;;;;;0.60;0.60;;;11.80;99.90;;;;;;4991828;28;20203;-77
2023/10/13 11:17:59;;;;;;;0.50;0.50;;;11.90;99.90;;;;;;4991797;28;20207;-77
2023/10/13 11:20:33;;;;;;;0.60;0.60;;;12.00;99.90;;;;;;4991978;28;20195;-76
2023/10/13 11:22:59;;;;;;;0.60;0.60;;;11.90;99.90;;;;;;5011438;28;20187;-77
2023/10/13 11:25:34;;;;;;;0.52;0.52;;;11.90;99.90;;;;;;5011301;28;20676;-76
2023/10/13 11:28:17;;;;;;;0.60;0.60;;;11.90;99.90;;;;;;5010738;28;20268;-76
2023/10/13 11:30:49;;;;;;;0.57;0.57;;;11.90;99.90;;;;;;5009635;28;20289;-77
2023/10/13 11:33:18;;;;;;;0.82;0.82;;;12.00;99.90;;;;;;5011060;28;20736;-76
2023/10/13 11:36:21;;;;;;;0.60;0.60;;;11.90;99.90;;;;;;5010728;28;20191;-76
2023/10/13 11:38:49;;;;;;;0.93;0.93;;;11.90;99.90;;;;;;5008402;28;20239;-76
2023/10/13 11:41:18;;;;;;;1.65;0.80;;;11.80;99.90;;;;;;5010753;28;20311;-76
2023/10/13 11:51:48;;;;;;;0.70;0.70;;;11.80;99.90;;;;;;5010303;28;20198;-77
2023/10/13 11:54:17;;;;;;;0.60;0.60;;;11.70;99.90;;;;;;5009132;28;20237;-77
2023/10/13 11:56:48;;;;;;;0.60;0.60;;;11.70;99.90;;;;;;5025840;28;20592;-78
2023/10/13 11:59:17;;;;;;;0.60;0.60;;;11.60;99.90;;;;;;5010459;28;20242;-77
2023/10/13 12:04:51;;;;;;;0.60;0.60;;;11.60;99.90;;;;;;5010942;28;20199;-76
2023/10/13 12:07:23;;;;;;;0.60;0.60;;;11.50;99.90;;;;;;5010617;28;20614;-76
2023/10/13 12:12:20;;;;;;;0.60;0.60;;;11.50;99.90;;;;;;5009439;28;20256;-78
2023/10/13 12:14:55;;;;;;;0.50;0.50;;;11.50;99.90;;;;;;5009654;28;20631;-78
2023/10/13 12:17:31;;;;;;;0.50;0.50;;;11.40;99.90;;;;;;5013345;28;20210;-79
2023/10/13 12:20:10;;;;;;;0.60;0.60;;;11.50;99.90;;;;;;5014687;28;20205;-79
2023/10/13 12:22:39;;;;;;;0.60;0.60;;;11.50;99.90;;;;;;5014377;28;20202;-78
2023/10/13 12:25:25;;;;;;;0.95;0.95;;;11.50;99.90;;;;;;5014071;28;20202;-78
2023/10/13 12:27:57;;;;;;;0.50;0.50;;;11.50;99.90;;;;;;5014958;28;20301;-79
2023/10/13 12:30:48;;;;;;;0.45;0.45;;;11.40;99.90;;;;;;5014297;28;20201;-79
2023/10/13 12:33:23;;;;;;;0.60;0.60;;;11.50;99.90;;;;;;5014847;28;20198;-79
2023/10/13 12:52:31;;;;;;;0.60;0.60;;;11.20;99.90;;;;;;5016441;28;20226;-78
2023/10/13 12:57:27;;;;;;;0.60;0.60;;;11.10;99.90;;;;;;4995958;28;20199;-79
2023/10/13 12:59:54;;;;;;;0.75;0.75;;;11.10;99.90;;;;;;4996067;28;20796;-78
2023/10/13 13:02:31;;;;;;;0.93;0.93;;;11.10;99.90;;;;;;4995753;28;20726;-79
2023/10/13 13:05:11;;;;;;;0.80;0.80;;;11.00;99.90;;;;;;4996303;28;20195;-80
2023/10/13 13:07:47;;;;;;;0.57;0.57;;;11.00;99.90;;;;;;4995097;28;20210;-79
2023/10/13 13:10:18;;;;;;;0.60;0.60;;;11.00;99.90;;;;;;4994395;28;20199;-78
2023/10/13 13:12:44;;;;;;;0.90;0.90;;;11.00;99.90;;;;;;4996394;28;20200;-79
2023/10/13 13:15:11;;;;;;;0.80;0.80;;;11.00;99.90;;;;;;5015602;28;20190;-78
2023/10/13 13:17:38;;;;;;;0.60;0.60;;;10.90;99.90;;;;;;5030257;28;20252;-77
2023/10/13 13:20:27;;;;;;;1.67;1.58;;;10.90;99.90;;;;;;5030657;28;20584;-77
2023/10/13 13:23:01;;;;;;;0.60;0.60;;;11.00;99.90;;;;;;5015417;28;20206;-77
2023/10/13 13:25:30;;;;;;;0.60;0.60;;;10.90;99.90;;;;;;5015422;28;20280;-78
2023/10/13 13:27:57;;;;;;;0.60;0.60;;;10.90;99.90;;;;;;5013599;28;20194;-78
2023/10/13 13:30:30;;;;;;;0.68;0.68;;;10.90;99.90;;;;;;5027172;28;20253;-78
2023/10/13 13:33:03;;;;;;;0.60;0.60;;;10.90;99.90;;;;;;5012771;28;20191;-77
2023/10/13 13:35:34;;;;;;;0.88;0.88;;;10.90;99.90;;;;;;5010015;28;20213;-77
2023/10/13 13:38:09;;;;;;;1.40;1.17;;;10.90;99.90;;;;;;5011922;28;20237;-76
2023/10/13 13:40:39;;;;;;;0.60;0.60;;;10.90;99.90;;;;;;4992181;28;20191;-78
2023/10/13 13:43:06;;;;;;;0.70;0.70;;;11.00;99.90;;;;;;4992480;28;20567;-79
2023/10/13 13:45:34;;;;;;;1.02;1.02;;;10.90;99.90;;;;;;4992236;28;20211;-77
2023/10/13 13:48:07;;;;;;;0.60;0.60;;;10.90;99.90;;;;;;5007409;28;20207;-78
2023/10/13 13:50:39;;;;;;;1.27;1.17;;;10.80;99.90;;;;;;4992481;28;20278;-76
2023/10/13 13:53:09;;;;;;;0.60;0.60;;;10.80;99.90;;;;;;4992439;28;20682;-78
2023/10/13 13:55:35;;;;;;;0.60;0.60;;;10.80;99.90;;;;;;5011376;28;20219;-77
2023/10/13 13:58:00;;;;;;;0.60;0.60;;;10.70;99.90;;;;;;4993785;28;20198;-78
2023/10/13 14:00:37;;;;;;;0.63;0.63;;;10.70;99.90;;;;;;4993605;28;20199;-78
2023/10/13 14:05:51;;;;;;;0.60;0.60;;;10.80;99.90;;;;;;5011871;28;20202;-78
2023/10/13 14:08:16;;;;;;;0.60;0.60;;;10.70;99.90;;;;;;5011527;28;20194;-77
2023/10/13 14:13:48;;;;;;;0.60;0.60;;;10.70;99.90;;;;;;5030922;28;20205;-77
2023/10/13 14:16:16;;;;;;;0.60;0.60;;;10.70;99.90;;;;;;5030636;28;20669;-77
2023/10/13 14:18:46;;;;;;;1.35;1.25;;;10.70;99.90;;;;;;5012753;28;20209;-79
2023/10/13 14:21:16;;;;;;;0.70;0.70;;;10.70;99.90;;;;;;5013119;28;20752;-78
2023/10/13 14:23:49;;;;;;;0.60;0.60;;;10.60;99.90;;;;;;5030719;28;20197;-79
2023/10/13 14:26:27;;;;;;;0.60;0.60;;;10.60;99.90;;;;;;5012956;28;20213;-79
2023/10/13 14:29:03;;;;;;;0.60;0.60;;;10.60;99.90;;;;;;5030667;28;20201;-78
2023/10/13 14:31:29;;;;;;;0.82;0.82;;;10.60;99.90;;;;;;5012532;28;20206;-77
2023/10/13 14:33:56;;;;;;;0.93;0.93;;;10.50;99.90;;;;;;5030939;28;20228;-80
2023/10/13 14:36:22;;;;;;;0.60;0.60;;;10.40;99.90;;;;;;5012573;28;20213;-77
2023/10/13 14:38:52;;;;;;;0.60;0.60;;;10.40;99.90;;;;;;5012602;28;20210;-79
2023/10/13 14:41:21;;;;;;;0.70;0.70;;;10.30;99.90;;;;;;5031411;28;20696;-77
2023/10/13 14:43:50;;;;;;;0.60;0.60;;;10.20;99.90;;;;;;5031591;28;20202;-77
2023/10/13 14:46:16;;;;;;;0.60;0.60;;;10.00;99.90;;;;;;5031567;28;20194;-79
2023/10/13 14:48:48;;;;;;;13.23;1.17;;;9.90;99.90;;;;;;5031781;28;20672;-80
2023/10/13 14:51:16;;;;;;;2.08;1.25;;;9.70;99.90;;;;;;5031237;28;20213;-78
2023/10/13 14:53:46;;;;;;;0.60;0.60;;;9.60;99.90;;;;;;5009673;28;20690;-78
2023/10/13 14:56:12;;;;;;;0.70;0.70;;;9.40;99.90;;;;;;5010195;28;20203;-79
2023/10/13 14:58:42;;;;;;;0.60;0.60;;;9.40;99.90;;;;;;5011329;28;20214;-79
2023/10/13 15:01:17;;;;;;;0.55;0.55;;;9.30;99.90;;;;;;5011373;28;20237;-79
2023/10/13 15:03:44;;;;;;;1.90;1.73;;;9.20;99.90;;;;;;5011572;28;20205;-79
2023/10/13 15:06:24;;;;;;;0.60;0.60;;;9.20;99.90;;;;;;5011290;28;20195;-79
2023/10/13 15:08:54;;;;;;;0.60;0.60;;;9.10;99.90;;;;;;5010019;28;20623;-79
2023/10/13 15:11:26;;;;;;;1.15;0.90;;;9.10;99.90;;;;;;5011078;28;20199;-78
2023/10/13 15:13:55;;;;;;;0.95;0.95;;;9.00;99.90;;;;;;5011259;28;20199;-78
2023/10/13 15:16:23;;;;;;;1.67;1.58;;;9.00;99.90;;;;;;5011051;28;20202;-78
2023/10/13 15:18:55;;;;;;;13.27;2.50;;;9.00;99.90;;;;;;5009484;28;20295;-79
2023/10/13 15:21:34;;;;;;;0.60;0.60;;;8.90;99.90;;;;;;5026080;28;20209;-77
2023/10/13 15:24:03;;;;;;;0.70;0.70;;;8.90;99.90;;;;;;5009740;28;20206;-78
2023/10/13 15:26:38;;;;;;;1.05;1.05;;;8.90;99.90;;;;;;5010684;28;20294;-78
2023/10/13 15:29:09;;;;;;;0.90;0.90;;;8.80;99.90;;;;;;5011123;28;20227;-78
2023/10/13 15:34:12;;;;;;;2.28;2.15;;;8.80;99.90;;;;;;5010927;28;20207;-79
2023/10/13 15:36:42;;;;;;;0.60;0.60;;;8.70;99.90;;;;;;5009275;28;20626;-80
2023/10/13 15:39:10;;;;;;;0.70;0.70;;;8.70;99.90;;;;;;5010717;28;20581;-79
2023/10/13 15:41:39;;;;;;;0.60;0.60;;;8.70;99.90;;;;;;5009361;28;20207;-79
2023/10/13 15:44:09;;;;;;;0.50;0.50;;;8.70;99.90;;;;;;5009050;28;20205;-79
2023/10/13 15:46:36;;;;;;;1.00;1.00;;;8.70;99.90;;;;;;5010059;28;20191;-80
2023/10/13 15:49:05;;;;;;;0.70;0.70;;;8.60;99.90;;;;;;5010767;28;20709;-80
2023/10/13 15:51:36;;;;;;;0.70;0.70;;;8.50;99.90;;;;;;5022859;28;20211;-80
2023/10/13 15:54:03;;;;;;;0.50;0.50;;;8.50;99.90;;;;;;5008509;28;20230;-79
2023/10/13 15:56:32;;;;;;;0.55;0.55;;;8.50;99.90;;;;;;5009809;28;20198;-79
2023/10/13 15:59:09;;;;;;;0.60;0.60;;;8.40;99.90;;;;;;5009947;28;20215;-80
2023/10/13 16:01:35;;;;;;;1.10;1.00;;;8.40;99.90;;;;;;5008808;28;20210;-80
2023/10/13 16:04:10;;;;;;;0.70;0.70;;;8.40;99.90;;;;;;5009027;28;20241;-83
2023/10/13 16:06:46;;;;;;;0.80;0.80;;;8.40;99.90;;;;;;5025043;28;20202;-80
2023/10/13 16:09:15;;;;;;;0.70;0.70;;;8.30;99.90;;;;;;5009481;28;20221;-82
2023/10/13 16:11:45;;;;;;;0.50;0.50;;;8.30;99.90;;;;;;5009258;28;20249;-80
2023/10/13 16:14:15;;;;;;;0.70;0.70;;;8.20;99.90;;;;;;5010619;28;20662;-81
2023/10/13 16:16:46;;;;;;;0.70;0.70;;;8.20;99.90;;;;;;5010873;28;20674;-82
2023/10/13 16:19:46;;;;;;;0.60;0.60;;;8.10;99.90;;;;;;5008962;28;20210;-82
2023/10/13 16:22:12;;;;;;;0.70;0.70;;;8.10;99.90;;;;;;5008868;28;20568;-78
2023/10/13 16:24:37;;;;;;;0.63;0.63;;;8.10;99.90;;;;;;5025475;28;20203;-80
2023/10/13 16:27:06;;;;;;;0.60;0.60;;;8.00;99.90;;;;;;5009962;28;20676;-80
2023/10/13 16:29:32;;;;;;;0.60;0.60;;;8.00;99.90;;;;;;5024807;28;20195;-80
2023/10/13 16:31:59;;;;;;;0.68;0.68;;;8.00;99.90;;;;;;5010200;28;20785;-79
2023/10/13 16:34:25;;;;;;;0.60;0.60;;;8.10;99.90;;;;;;5025258;28;20202;-80
2023/10/13 16:36:55;;;;;;;0.60;0.60;;;8.00;99.90;;;;;;5008895;28;20253;-78
2023/10/13 16:39:29;;;;;;;0.60;0.60;;;8.00;99.90;;;;;;5008661;28;20673;-79
2023/10/13 16:41:58;;;;;;;0.70;0.70;;;8.00;99.90;;;;;;5010535;28;20222;-78
2023/10/13 16:44:26;;;;;;;0.70;0.70;;;8.00;99.90;;;;;;5010154;28;20706;-80
2023/10/13 16:46:59;;;;;;;0.60;0.60;;;7.90;99.90;;;;;;5010100;28;20654;-80